Time;durP1;ratioP1;P1;durP2;ratioP2;P2;SDS_P1;SDS_P2;PMS_P1;PMS_P2;Temp;Humidity;BMP_temperature;BMP_pressure;BME280_temperature;BME280_humidity;BME280_pressure;Samples;Min_cycle;Max_cycle;Signal;HPM_P1;HPM_P2
2023/07/31 00:02:14;;;;;;;2.53;1.23;;;;;;;;;;10181442;29;20610;-89
2023/07/31 00:07:18;;;;;;;3.85;1.65;;;;;;;;;;10181592;29;20056;-86
2023/07/31 00:12:21;;;;;;;3.30;1.42;;;;;;;;;;10164576;29;20547;-86
2023/07/31 00:17:26;;;;;;;4.85;1.40;;;;;;;;;;10169160;29;20052;-87
2023/07/31 00:22:29;;;;;;;2.08;1.35;;;;;;;;;;10172146;29;20066;-86
2023/07/31 00:27:33;;;;;;;1.77;1.10;;;;;;;;;;10166390;29;20075;-86
2023/07/31 00:32:37;;;;;;;1.77;1.20;;;;;;;;;;10155631;29;20115;-85
2023/07/31 00:37:41;;;;;;;2.85;1.55;;;;;;;;;;10162554;29;20051;-88
2023/07/31 00:42:44;;;;;;;2.50;1.35;;;;;;;;;;10175373;29;20052;-88
2023/07/31 00:47:49;;;;;;;3.47;1.50;;;;;;;;;;10170837;29;20670;-86
2023/07/31 00:52:54;;;;;;;2.13;1.45;;;;;;;;;;10175523;29;20838;-85
2023/07/31 00:57:57;;;;;;;2.35;1.15;;;;;;;;;;10158269;29;20118;-86
2023/07/31 01:03:02;;;;;;;3.25;1.38;;;;;;;;;;10156402;29;20060;-85
2023/07/31 01:08:13;;;;;;;1.67;1.08;;;;;;;;;;10151952;29;20063;-86
2023/07/31 01:13:18;;;;;;;3.38;1.25;;;;;;;;;;10160114;29;20052;-86
2023/07/31 01:18:23;;;;;;;2.08;1.30;;;;;;;;;;10167084;29;20055;-86
2023/07/31 01:24:08;;;;;;;1.98;0.88;;;;;;;;;;10171750;29;20786;-86
2023/07/31 01:29:23;;;;;;;4.53;1.50;;;;;;;;;;10162570;29;20056;-85
2023/07/31 01:34:29;;;;;;;2.13;1.15;;;;;;;;;;10169558;29;20054;-86
2023/07/31 01:39:32;;;;;;;3.53;1.15;;;;;;;;;;10181539;29;20520;-86
2023/07/31 01:44:37;;;;;;;4.30;1.77;;;;;;;;;;10149414;29;20101;-86
2023/07/31 01:49:41;;;;;;;3.40;1.65;;;;;;;;;;10155529;29;20071;-87
2023/07/31 01:54:44;;;;;;;2.95;1.90;;;;;;;;;;10183386;29;20051;-85
2023/07/31 01:59:49;;;;;;;2.60;1.60;;;;;;;;;;10148756;29;20059;-86
2023/07/31 02:04:52;;;;;;;2.50;1.50;;;;;;;;;;10155489;29;20051;-86
2023/07/31 02:09:56;;;;;;;4.35;1.70;;;;;;;;;;10149901;29;20098;-88
2023/07/31 02:15:01;;;;;;;2.70;1.75;;;;;;;;;;10158211;29;20052;-87
2023/07/31 02:20:05;;;;;;;2.50;1.38;;;;;;;;;;10160473;29;20044;-86
2023/07/31 02:25:10;;;;;;;4.10;1.83;;;;;;;;;;10175197;29;20123;-86
2023/07/31 02:30:14;;;;;;;3.25;1.70;;;;;;;;;;10165918;29;20099;-87
2023/07/31 02:35:18;;;;;;;2.97;1.70;;;;;;;;;;10153283;29;20047;-87
2023/07/31 02:40:23;;;;;;;2.38;1.38;;;;;;;;;;10165761;29;20048;-86
2023/07/31 02:45:28;;;;;;;2.38;1.55;;;;;;;;;;10176694;29;20574;-88
2023/07/31 02:50:31;;;;;;;2.45;1.25;;;;;;;;;;10164832;29;20673;-86
2023/07/31 02:55:35;;;;;;;3.38;1.65;;;;;;;;;;10153694;29;20050;-89
2023/07/31 03:00:45;;;;;;;2.30;1.35;;;;;;;;;;10157148;29;20127;-86
2023/07/31 03:05:48;;;;;;;1.20;1.00;;;;;;;;;;10152107;29;20064;-86
2023/07/31 03:10:51;;;;;;;1.95;1.23;;;;;;;;;;10161730;29;20653;-85
2023/07/31 03:15:56;;;;;;;2.10;1.27;;;;;;;;;;10164966;29;20041;-86
2023/07/31 03:21:00;;;;;;;4.07;1.60;;;;;;;;;;10165825;29;20583;-86
2023/07/31 03:26:06;;;;;;;3.05;1.58;;;;;;;;;;10184574;29;20059;-85
2023/07/31 03:31:11;;;;;;;2.35;1.48;;;;;;;;;;10181496;29;20047;-87
2023/07/31 03:36:15;;;;;;;1.65;1.20;;;;;;;;;;10198620;29;20052;-86
2023/07/31 03:41:18;;;;;;;1.80;1.05;;;;;;;;;;10188549;29;20051;-86
2023/07/31 03:46:23;;;;;;;1.73;0.98;;;;;;;;;;10168850;29;20102;-86
2023/07/31 03:51:27;;;;;;;2.23;1.10;;;;;;;;;;10181026;29;20055;-85
2023/07/31 03:56:31;;;;;;;1.50;0.88;;;;;;;;;;10188125;29;20088;-87
2023/07/31 04:01:37;;;;;;;1.45;1.00;;;;;;;;;;10176184;29;20522;-89
2023/07/31 04:06:40;;;;;;;2.03;1.40;;;;;;;;;;10162010;29;20455;-86
2023/07/31 04:11:44;;;;;;;2.55;1.30;;;;;;;;;;10160095;29;20051;-86
2023/07/31 04:16:49;;;;;;;1.98;1.30;;;;;;;;;;10167318;29;20653;-86
2023/07/31 04:21:52;;;;;;;1.95;1.00;;;;;;;;;;10152484;29;20052;-86
2023/07/31 04:26:56;;;;;;;1.02;0.90;;;;;;;;;;10172811;29;20063;-85
2023/07/31 04:32:01;;;;;;;1.45;0.90;;;;;;;;;;10172615;29;20075;-86
2023/07/31 04:37:05;;;;;;;1.75;0.82;;;;;;;;;;10175393;29;20091;-86
2023/07/31 04:42:08;;;;;;;1.33;0.88;;;;;;;;;;10175314;29;20143;-85
2023/07/31 04:47:14;;;;;;;0.88;0.75;;;;;;;;;;10158979;29;20048;-86
2023/07/31 04:52:17;;;;;;;0.70;0.60;;;;;;;;;;10148180;29;20052;-85
2023/07/31 04:57:24;;;;;;;1.60;0.77;;;;;;;;;;10148349;29;20480;-85
2023/07/31 05:02:32;;;;;;;1.52;0.80;;;;;;;;;;10178926;29;20048;-85
2023/07/31 05:07:39;;;;;;;1.38;0.70;;;;;;;;;;10168550;29;20052;-90
2023/07/31 05:12:43;;;;;;;1.25;0.75;;;;;;;;;;10148266;29;20059;-86
2023/07/31 05:17:50;;;;;;;1.25;0.73;;;;;;;;;;10159807;29;20056;-85
2023/07/31 05:22:54;;;;;;;1.38;0.85;;;;;;;;;;10194475;29;20099;-85
2023/07/31 05:28:02;;;;;;;1.42;0.75;;;;;;;;;;10183881;29;20060;-85
2023/07/31 05:33:06;;;;;;;2.88;0.93;;;;;;;;;;10167602;29;20072;-85
2023/07/31 05:38:15;;;;;;;2.15;1.00;;;;;;;;;;10167812;29;20574;-89
2023/07/31 05:43:19;;;;;;;1.10;0.90;;;;;;;;;;10161482;29;20044;-85
2023/07/31 05:48:31;;;;;;;2.75;0.70;;;;;;;;;;10143898;29;20100;-85
2023/07/31 05:53:35;;;;;;;2.22;0.90;;;;;;;;;;10192313;29;20568;-84
2023/07/31 05:58:41;;;;;;;2.25;1.10;;;;;;;;;;10144440;29;20108;-85
2023/07/31 06:03:47;;;;;;;1.35;0.77;;;;;;;;;;10146031;29;20524;-85
2023/07/31 06:08:54;;;;;;;2.20;0.98;;;;;;;;;;10154929;29;20048;-86
2023/07/31 06:13:57;;;;;;;1.70;0.80;;;;;;;;;;10162531;29;20059;-85
2023/07/31 06:19:02;;;;;;;1.75;0.95;;;;;;;;;;10162254;29;20048;-84
2023/07/31 06:24:09;;;;;;;2.72;1.38;;;;;;;;;;10148545;29;20052;-85
2023/07/31 06:29:39;;;;;;;2.95;1.70;;;;;;;;;;10171553;29;20079;-85
2023/07/31 06:34:46;;;;;;;1.98;1.38;;;;;;;;;;10159557;29;20047;-87
2023/07/31 06:39:50;;;;;;;4.60;1.83;;;;;;;;;;10166352;29;20051;-87
2023/07/31 06:44:53;;;;;;;3.78;1.60;;;;;;;;;;10159884;29;20040;-85
2023/07/31 06:50:01;;;;;;;2.28;1.80;;;;;;;;;;10182894;29;20059;-87
2023/07/31 06:55:16;;;;;;;3.83;1.88;;;;;;;;;;10167630;29;20040;-85
2023/07/31 07:00:23;;;;;;;2.88;1.33;;;;;;;;;;10172858;29;20048;-87
2023/07/31 07:05:31;;;;;;;5.65;2.40;;;;;;;;;;10164727;29;20662;-87
2023/07/31 07:10:38;;;;;;;2.63;1.35;;;;;;;;;;10154520;29;20522;-86
2023/07/31 07:15:42;;;;;;;2.47;1.55;;;;;;;;;;10164322;29;20096;-85
2023/07/31 07:20:53;;;;;;;2.90;1.30;;;;;;;;;;10152440;29;20060;-86
2023/07/31 07:25:59;;;;;;;2.45;1.10;;;;;;;;;;10144052;29;20726;-86
2023/07/31 07:31:06;;;;;;;2.90;1.30;;;;;;;;;;10174829;29;20511;-85
2023/07/31 07:36:12;;;;;;;2.63;1.20;;;;;;;;;;10135247;29;20099;-87
2023/07/31 07:41:18;;;;;;;4.10;2.10;;;;;;;;;;10182049;29;20068;-88
2023/07/31 07:46:24;;;;;;;2.97;1.90;;;;;;;;;;10167898;29;20059;-88
2023/07/31 07:51:31;;;;;;;3.50;1.70;;;;;;;;;;10166062;29;20062;-88
2023/07/31 07:56:37;;;;;;;2.45;1.40;;;;;;;;;;10142280;29;20048;-88
2023/07/31 08:01:40;;;;;;;;;;;;;;;;;;10158645;29;20056;-88
2023/07/31 08:06:53;;;;;;;4.53;1.83;;;;;;;;;;10189139;29;20393;-87
2023/07/31 08:12:01;;;;;;;3.90;2.10;;;;;;;;;;10177230;29;20039;-87
2023/07/31 08:17:05;;;;;;;3.60;1.67;;;;;;;;;;10174222;29;20468;-88
2023/07/31 08:22:10;;;;;;;4.93;1.88;;;;;;;;;;10169660;29;20503;-88
2023/07/31 08:27:16;;;;;;;3.03;1.42;;;;;;;;;;10181951;29;20052;-89
2023/07/31 08:32:19;;;;;;;2.63;1.35;;;;;;;;;;10159284;29;20052;-88
2023/07/31 08:37:32;;;;;;;3.33;1.90;;;;;;;;;;10161957;29;20055;-88
2023/07/31 08:42:46;;;;;;;5.97;2.10;;;;;;;;;;10172818;29;20167;-89
2023/07/31 08:47:51;;;;;;;3.70;2.03;;;;;;;;;;10165071;29;20129;-90
2023/07/31 08:52:59;;;;;;;3.72;1.83;;;;;;;;;;10166057;29;20043;-90
2023/07/31 08:58:04;;;;;;;4.43;2.45;;;;;;;;;;10158797;29;20048;-90
2023/07/31 09:03:19;;;;;;;3.80;1.83;;;;;;;;;;10166716;29;20805;-91
2023/07/31 09:08:32;;;;;;;3.30;1.60;;;;;;;;;;10169184;29;20051;-90
2023/07/31 09:13:36;;;;;;;2.95;1.65;;;;;;;;;;10162413;29;20052;-90
2023/07/31 09:18:56;;;;;;;3.42;1.48;;;;;;;;;;10172951;29;20085;-90
2023/07/31 09:24:05;;;;;;;5.00;2.10;;;;;;;;;;10166919;29;20063;-90
2023/07/31 09:29:23;;;;;;;4.13;2.10;;;;;;;;;;10169955;29;20084;-91
2023/07/31 09:34:39;;;;;;;5.10;1.90;;;;;;;;;;10174407;29;20412;-91
2023/07/31 09:39:58;;;;;;;3.03;1.77;;;;;;;;;;10167318;29;20056;-89
2023/07/31 09:45:14;;;;;;;3.35;2.05;;;;;;;;;;10161814;29;20052;-89
2023/07/31 09:50:28;;;;;;;5.10;2.33;;;;;;;;;;10167783;29;20057;-89
2023/07/31 09:55:34;;;;;;;3.92;2.10;;;;;;;;;;10178259;29;20058;-89
2023/07/31 10:00:45;;;;;;;5.97;1.63;;;;;;;;;;10155493;29;20051;-89
2023/07/31 10:05:53;;;;;;;5.90;2.63;;;;;;;;;;10179090;29;20063;-89
2023/07/31 10:11:05;;;;;;;4.35;2.45;;;;;;;;;;10157847;29;20705;-90
2023/07/31 10:16:16;;;;;;;3.85;1.95;;;;;;;;;;10152125;29;20547;-90
2023/07/31 10:21:20;;;;;;;4.03;2.55;;;;;;;;;;10173188;29;20063;-89
2023/07/31 10:26:28;;;;;;;3.72;2.30;;;;;;;;;;10168075;29;20054;-90
2023/07/31 10:31:32;;;;;;;3.10;2.42;;;;;;;;;;10167598;29;20056;-89
2023/07/31 10:36:41;;;;;;;4.75;2.03;;;;;;;;;;10155178;29;20044;-90
2023/07/31 10:41:48;;;;;;;3.20;1.77;;;;;;;;;;10173244;29;20107;-90
2023/07/31 10:47:01;;;;;;;3.67;2.10;;;;;;;;;;10159098;29;20649;-89
2023/07/31 10:52:04;;;;;;;;;;;;;;;;;;10160794;29;20116;-90
2023/07/31 10:57:22;;;;;;;3.67;2.25;;;;;;;;;;10167053;29;19923;-89
2023/07/31 11:02:35;;;;;;;4.63;2.00;;;;;;;;;;10160609;29;20066;-88
2023/07/31 11:07:51;;;;;;;3.95;1.77;;;;;;;;;;10149238;29;20048;-88
2023/07/31 11:12:56;;;;;;;3.67;1.80;;;;;;;;;;10157441;29;20063;-90
2023/07/31 11:18:08;;;;;;;3.13;1.80;;;;;;;;;;10159861;29;20075;-88
2023/07/31 11:23:18;;;;;;;3.42;1.80;;;;;;;;;;10176398;29;20051;-90
2023/07/31 11:28:23;;;;;;;3.70;1.98;;;;;;;;;;10167772;29;20047;-88
2023/07/31 11:33:30;;;;;;;2.43;1.80;;;;;;;;;;10158125;29;20079;-88
2023/07/31 11:38:35;;;;;;;4.03;1.83;;;;;;;;;;10162294;29;20052;-89
2023/07/31 11:43:43;;;;;;;4.82;1.80;;;;;;;;;;10158172;29;20158;-88
2023/07/31 11:48:46;;;;;;;5.85;2.05;;;;;;;;;;10156016;29;20044;-89
2023/07/31 11:53:54;;;;;;;1.95;1.30;;;;;;;;;;10163508;29;20060;-87
2023/07/31 11:59:03;;;;;;;3.33;1.77;;;;;;;;;;10167509;29;20055;-87
2023/07/31 12:04:10;;;;;;;3.92;1.63;;;;;;;;;;10167840;29;20052;-89
2023/07/31 12:09:23;;;;;;;3.30;1.70;;;;;;;;;;10160480;29;20456;-88
2023/07/31 12:14:31;;;;;;;1.88;1.23;;;;;;;;;;10179303;29;20067;-89
2023/07/31 12:19:36;;;;;;;3.20;1.50;;;;;;;;;;10161636;29;20062;-88
2023/07/31 12:24:45;;;;;;;2.57;1.60;;;;;;;;;;10200036;29;20462;-89
2023/07/31 12:29:51;;;;;;;2.85;1.40;;;;;;;;;;10179442;29;20303;-88
2023/07/31 12:35:04;;;;;;;1.40;1.20;;;;;;;;;;10174972;29;20527;-88
2023/07/31 12:40:12;;;;;;;1.95;1.30;;;;;;;;;;10163266;29;20104;-89
2023/07/31 12:45:17;;;;;;;3.72;1.50;;;;;;;;;;10177864;29;20059;-89
2023/07/31 12:50:23;;;;;;;2.97;1.30;;;;;;;;;;10163375;29;20125;-89
2023/07/31 12:55:28;;;;;;;3.47;1.40;;;;;;;;;;10169938;29;20618;-88
2023/07/31 13:00:40;;;;;;;4.45;1.90;;;;;;;;;;10154691;29;20052;-88
2023/07/31 13:05:43;;;;;;;2.85;1.77;;;;;;;;;;10167477;29;20468;-88
2023/07/31 13:10:51;;;;;;;3.35;1.48;;;;;;;;;;10161115;29;20048;-89
2023/07/31 13:15:56;;;;;;;2.72;1.90;;;;;;;;;;10182276;29;20059;-88
2023/07/31 13:21:02;;;;;;;1.90;1.30;;;;;;;;;;10154154;29;20084;-87
2023/07/31 13:26:06;;;;;;;2.25;1.40;;;;;;;;;;10162221;29;20070;-87
2023/07/31 13:31:19;;;;;;;2.70;1.50;;;;;;;;;;10166918;29;20049;-86
2023/07/31 13:36:23;;;;;;;4.93;1.63;;;;;;;;;;10170520;29;20530;-87
2023/07/31 13:41:33;;;;;;;1.75;1.27;;;;;;;;;;10161446;29;20056;-88
2023/07/31 13:46:40;;;;;;;2.28;1.20;;;;;;;;;;10164168;29;20538;-87
2023/07/31 13:51:46;;;;;;;3.53;1.27;;;;;;;;;;10160428;29;20079;-88
2023/07/31 13:56:54;;;;;;;0.93;0.70;;;;;;;;;;10169616;29;20048;-88
2023/07/31 14:02:07;;;;;;;2.88;1.10;;;;;;;;;;10167182;29;20057;-87
2023/07/31 14:07:11;;;;;;;1.52;0.85;;;;;;;;;;10159733;29;20555;-88
2023/07/31 14:12:16;;;;;;;2.05;1.15;;;;;;;;;;10164362;29;20047;-88
2023/07/31 14:17:26;;;;;;;1.73;1.10;;;;;;;;;;10160697;29;20059;-89
2023/07/31 14:22:37;;;;;;;1.88;1.00;;;;;;;;;;10169645;29;20543;-89
2023/07/31 14:27:43;;;;;;;2.97;1.30;;;;;;;;;;10149187;29;20056;-88
2023/07/31 14:32:49;;;;;;;2.28;1.10;;;;;;;;;;10156969;29;20036;-88
2023/07/31 14:37:57;;;;;;;3.07;1.60;;;;;;;;;;10158923;29;20122;-88
2023/07/31 14:43:00;;;;;;;1.77;0.90;;;;;;;;;;10184155;29;20056;-88
2023/07/31 14:48:09;;;;;;;1.50;1.00;;;;;;;;;;10149747;29;20096;-88
2023/07/31 14:53:13;;;;;;;1.95;1.00;;;;;;;;;;10184520;29;20123;-88
2023/07/31 14:58:23;;;;;;;0.90;0.80;;;;;;;;;;10170445;29;20052;-88
2023/07/31 15:03:29;;;;;;;1.70;0.90;;;;;;;;;;10161399;29;20415;-88
2023/07/31 15:08:36;;;;;;;2.57;1.00;;;;;;;;;;10171886;29;20071;-88
2023/07/31 15:13:41;;;;;;;1.85;0.60;;;;;;;;;;10160657;29;20119;-88
2023/07/31 15:18:47;;;;;;;2.25;1.08;;;;;;;;;;10163153;29;20464;-88
2023/07/31 15:23:53;;;;;;;1.70;1.00;;;;;;;;;;10166246;29;20043;-88
2023/07/31 15:29:05;;;;;;;1.90;1.20;;;;;;;;;;10167294;29;20863;-89
2023/07/31 15:34:10;;;;;;;1.48;0.85;;;;;;;;;;10182508;29;20051;-87
2023/07/31 15:39:18;;;;;;;1.98;1.05;;;;;;;;;;10149009;29;20048;-87
2023/07/31 15:44:22;;;;;;;2.25;1.13;;;;;;;;;;10147700;29;20063;-89
2023/07/31 15:49:27;;;;;;;2.00;1.20;;;;;;;;;;10158081;29;20040;-87
2023/07/31 15:54:31;;;;;;;2.80;1.60;;;;;;;;;;10164717;29;20624;-88
2023/07/31 15:59:34;;;;;;;1.88;1.00;;;;;;;;;;10155311;29;20393;-88
2023/07/31 16:04:40;;;;;;;1.05;0.95;;;;;;;;;;10146789;29;20051;-88
2023/07/31 16:09:44;;;;;;;1.95;1.33;;;;;;;;;;10139595;29;20056;-88
2023/07/31 16:14:47;;;;;;;1.60;1.10;;;;;;;;;;10169870;29;20054;-87
2023/07/31 16:19:52;;;;;;;2.03;1.25;;;;;;;;;;10176264;29;20052;-88
2023/07/31 16:24:55;;;;;;;2.13;1.45;;;;;;;;;;10147362;29;20071;-87
2023/07/31 16:30:00;;;;;;;4.30;1.70;;;;;;;;;;10153608;29;20043;-88
2023/07/31 16:35:06;;;;;;;2.97;1.50;;;;;;;;;;10158991;29;20087;-90
2023/07/31 16:40:10;;;;;;;2.55;1.27;;;;;;;;;;10162681;29;20048;-90
2023/07/31 16:45:14;;;;;;;2.70;1.42;;;;;;;;;;10166776;29;20063;-92
2023/07/31 16:50:19;;;;;;;2.25;1.30;;;;;;;;;;10182074;29;20044;-91
2023/07/31 16:55:23;;;;;;;;;;;;;;;;;;10164568;29;20500;-91
2023/07/31 17:00:30;;;;;;;1.88;1.20;;;;;;;;;;10166509;29;20557;-91
2023/07/31 17:05:36;;;;;;;1.25;1.00;;;;;;;;;;10187913;29;20528;-92
2023/07/31 17:10:41;;;;;;;3.40;1.85;;;;;;;;;;10158298;29;20180;-92
2023/07/31 17:15:45;;;;;;;2.47;1.35;;;;;;;;;;10150022;29;20583;-90
2023/07/31 17:20:50;;;;;;;2.83;1.50;;;;;;;;;;10173776;29;20047;-91
2023/07/31 17:25:54;;;;;;;2.50;1.43;;;;;;;;;;10151684;29;20084;-92
2023/07/31 17:30:58;;;;;;;1.98;1.50;;;;;;;;;;10152286;29;20063;-91
2023/07/31 17:36:04;;;;;;;4.63;1.90;;;;;;;;;;10152489;29;20096;-91
2023/07/31 17:41:17;;;;;;;2.83;1.87;;;;;;;;;;10156923;29;20052;-89
2023/07/31 17:46:21;;;;;;;4.05;1.65;;;;;;;;;;10150771;29;20377;-90
2023/07/31 17:51:27;;;;;;;2.20;1.40;;;;;;;;;;10173387;29;20051;-90
2023/07/31 17:56:37;;;;;;;3.25;1.55;;;;;;;;;;10161371;29;20460;-91
2023/07/31 18:01:45;;;;;;;3.53;2.00;;;;;;;;;;10143170;29;20060;-89
2023/07/31 18:06:51;;;;;;;2.60;1.90;;;;;;;;;;10166256;29;20044;-91
2023/07/31 18:11:54;;;;;;;2.10;1.70;;;;;;;;;;10156566;29;20067;-90
2023/07/31 18:17:00;;;;;;;4.53;2.47;;;;;;;;;;10185213;29;20050;-90
2023/07/31 18:22:05;;;;;;;3.65;2.15;;;;;;;;;;10169690;29;20127;-89
2023/07/31 18:27:09;;;;;;;4.60;2.67;;;;;;;;;;10157769;29;20555;-90
2023/07/31 18:32:13;;;;;;;5.63;3.05;;;;;;;;;;10162847;29;20296;-91
2023/07/31 18:37:19;;;;;;;4.72;2.78;;;;;;;;;;10160832;29;20048;-89
2023/07/31 18:42:23;;;;;;;6.17;2.50;;;;;;;;;;10152691;29;20056;-91
2023/07/31 18:47:27;;;;;;;5.05;2.75;;;;;;;;;;10158914;29;20175;-90
2023/07/31 18:52:33;;;;;;;4.80;2.72;;;;;;;;;;10154284;29;20153;-90
2023/07/31 18:57:40;;;;;;;3.55;2.50;;;;;;;;;;10151671;29;20131;-90
2023/07/31 19:02:48;;;;;;;4.82;2.88;;;;;;;;;;10162676;29;20068;-90
2023/07/31 19:07:53;;;;;;;4.45;2.33;;;;;;;;;;10156569;29;20052;-90
2023/07/31 19:12:57;;;;;;;6.30;3.08;;;;;;;;;;10166750;29;20064;-88
2023/07/31 19:18:01;;;;;;;5.55;3.13;;;;;;;;;;10141197;29;20056;-89
2023/07/31 19:23:06;;;;;;;4.28;2.80;;;;;;;;;;10156417;29;20052;-91
2023/07/31 19:28:14;;;;;;;6.43;2.80;;;;;;;;;;10150797;29;20059;-90
2023/07/31 19:33:18;;;;;;;8.50;3.40;;;;;;;;;;10172455;29;20083;-92
2023/07/31 19:38:26;;;;;;;6.53;3.03;;;;;;;;;;10153193;29;20115;-90
2023/07/31 19:44:22;;;;;;;5.18;3.33;;;;;;;;;;10175196;29;20472;-91
2023/07/31 19:49:46;;;;;;;4.13;2.67;;;;;;;;;;10163848;29;20048;-90
2023/07/31 19:55:00;;;;;;;5.38;2.55;;;;;;;;;;10141721;29;20103;-91
2023/07/31 20:00:08;;;;;;;4.28;2.70;;;;;;;;;;10164655;29;20542;-92
2023/07/31 20:05:21;;;;;;;4.78;2.55;;;;;;;;;;10176650;29;20071;-92
2023/07/31 20:10:33;;;;;;;5.05;3.08;;;;;;;;;;10157484;29;20048;-92
2023/07/31 20:15:44;;;;;;;4.55;2.47;;;;;;;;;;10173334;29;20052;-89
2023/07/31 20:20:48;;;;;;;4.13;2.20;;;;;;;;;;10169854;29;20475;-90
2023/07/31 20:26:14;;;;;;;3.20;2.10;;;;;;;;;;10163701;29;20051;-92
2023/07/31 20:31:33;;;;;;;3.63;2.40;;;;;;;;;;10163257;29;20047;-92
2023/07/31 20:36:44;;;;;;;3.30;2.45;;;;;;;;;;10173211;29;20071;-91
2023/07/31 20:42:15;;;;;;;3.22;2.22;;;;;;;;;;10166965;29;20079;-93
2023/07/31 20:47:43;;;;;;;4.67;2.87;;;;;;;;;;10194005;29;20036;-93
2023/07/31 20:52:47;;;;;;;3.47;1.80;;;;;;;;;;10161991;29;20300;-91
2023/07/31 20:57:54;;;;;;;3.08;1.95;;;;;;;;;;10165825;29;20053;-92
2023/07/31 21:02:58;;;;;;;2.97;2.00;;;;;;;;;;10199065;29;20686;-90
2023/07/31 21:08:07;;;;;;;2.67;1.63;;;;;;;;;;10188905;29;20048;-92
2023/07/31 21:13:14;;;;;;;1.70;1.23;;;;;;;;;;10179506;29;20067;-92
2023/07/31 21:18:18;;;;;;;1.67;1.23;;;;;;;;;;10174784;29;20067;-92
2023/07/31 21:23:24;;;;;;;1.90;1.10;;;;;;;;;;10161630;29;20052;-91
2023/07/31 21:28:31;;;;;;;1.60;1.10;;;;;;;;;;10168153;29;20071;-91
2023/07/31 21:33:38;;;;;;;1.92;0.90;;;;;;;;;;10169827;29;20059;-92
2023/07/31 21:38:42;;;;;;;1.13;0.82;;;;;;;;;;10171575;29;20048;-91
2023/07/31 21:43:48;;;;;;;1.20;0.90;;;;;;;;;;10157262;29;20091;-90
2023/07/31 21:48:51;;;;;;;1.85;1.10;;;;;;;;;;10147751;29;20052;-91
2023/07/31 21:53:56;;;;;;;2.53;1.25;;;;;;;;;;10185712;29;20083;-91
2023/07/31 21:59:02;;;;;;;2.60;1.17;;;;;;;;;;10161179;29;20044;-91
2023/07/31 22:04:07;;;;;;;1.90;1.27;;;;;;;;;;10158414;29;20089;-92
2023/07/31 22:09:10;;;;;;;1.80;1.25;;;;;;;;;;10191488;29;20075;-91
2023/07/31 22:14:31;;;;;;;1.95;1.30;;;;;;;;;;10157566;29;20579;-92
2023/07/31 22:19:35;;;;;;;1.10;0.80;;;;;;;;;;10155235;29;20062;-91
2023/07/31 22:24:38;;;;;;;2.00;1.13;;;;;;;;;;10179719;29;20055;-90
2023/07/31 22:29:44;;;;;;;1.23;0.90;;;;;;;;;;10152651;29;20052;-90
2023/07/31 22:34:47;;;;;;;1.40;0.87;;;;;;;;;;10151851;29;20158;-90
2023/07/31 22:39:51;;;;;;;1.33;0.88;;;;;;;;;;10169522;29;20048;-90
2023/07/31 22:44:56;;;;;;;1.52;0.80;;;;;;;;;;10176387;29;20059;-90
2023/07/31 22:49:59;;;;;;;1.42;0.80;;;;;;;;;;10161803;29;20048;-89
2023/07/31 22:55:03;;;;;;;1.17;0.95;;;;;;;;;;10180061;29;20052;-91
2023/07/31 23:00:09;;;;;;;1.80;1.05;;;;;;;;;;10176221;29;20486;-90
2023/07/31 23:05:14;;;;;;;1.10;0.73;;;;;;;;;;10160416;29;20063;-90
2023/07/31 23:10:18;;;;;;;3.50;0.67;;;;;;;;;;10153063;29;20385;-91
2023/07/31 23:15:23;;;;;;;1.25;0.70;;;;;;;;;;10171515;29;20068;-92
2023/07/31 23:20:27;;;;;;;0.75;0.60;;;;;;;;;;10158987;29;20052;-92
2023/07/31 23:25:34;;;;;;;1.27;0.77;;;;;;;;;;10154990;29;20072;-93
2023/07/31 23:30:40;;;;;;;0.93;0.57;;;;;;;;;;10150522;29;20413;-95
2023/07/31 23:35:44;;;;;;;0.82;0.82;;;;;;;;;;10150817;29;20048;-92
2023/07/31 23:40:48;;;;;;;0.60;0.60;;;;;;;;;;10158734;29;20411;-92
2023/07/31 23:45:53;;;;;;;0.55;0.55;;;;;;;;;;10157188;29;20218;-92
2023/07/31 23:51:01;;;;;;;2.03;0.93;;;;;;;;;;10181122;29;20589;-93
2023/07/31 23:56:06;;;;;;;0.70;0.70;;;;;;;;;;10171060;29;20056;-95
